createdAt,value
2018-09-13T04:31:49.078Z,8.73
2018-09-13T04:34:17.280Z,9.13
2018-09-13T04:36:45.439Z,8.60
2018-09-13T04:39:13.603Z,9.67
2018-09-13T04:41:41.723Z,9.43
2018-09-13T04:44:09.880Z,9.10
2018-09-13T04:46:38.098Z,8.70
2018-09-13T04:49:06.302Z,10.07
2018-09-13T04:51:34.422Z,9.00
2018-09-13T04:54:02.571Z,10.10
2018-09-13T04:56:30.736Z,9.33
2018-09-13T04:58:58.943Z,10.33
2018-09-13T05:01:27.115Z,8.90
2018-09-13T05:03:55.277Z,9.13
2018-09-13T05:09:15.437Z,9.30
2018-09-13T05:11:43.704Z,9.20
2018-09-13T05:14:16.183Z,8.90
2018-09-13T05:16:44.919Z,9.03
2018-09-13T05:19:13.071Z,9.80
2018-09-13T05:24:33.433Z,9.30
2018-09-13T05:27:02.315Z,8.93
2018-09-13T05:29:30.796Z,9.00
2018-09-13T05:32:03.177Z,9.80
2018-09-13T05:46:07.774Z,9.70
2018-09-13T05:48:40.720Z,10.87
2018-09-13T05:54:12.984Z,10.00
2018-09-13T05:56:42.296Z,9.93
2018-09-13T05:59:11.196Z,10.33
2018-09-13T06:01:40.862Z,9.70
2018-09-13T06:04:09.278Z,8.63
2018-09-13T06:06:37.626Z,9.03
2018-09-13T06:09:06.565Z,9.07
2018-09-13T06:11:35.412Z,7.87
2018-09-13T06:14:04.955Z,8.53
2018-09-13T06:16:33.567Z,9.60
2018-09-13T06:19:04.428Z,9.00
2018-09-13T06:21:32.941Z,9.20
2018-09-13T06:24:01.531Z,9.47
2018-09-13T06:26:29.843Z,8.97
2018-09-13T06:28:58.336Z,7.80
2018-09-13T06:31:26.843Z,8.50
2018-09-13T06:33:55.612Z,9.00
2018-09-13T06:36:24.138Z,8.17
2018-09-13T06:38:52.993Z,7.90
2018-09-13T06:41:21.276Z,8.10
2018-09-13T06:43:53.751Z,8.30
2018-09-13T06:46:22.370Z,7.70
2018-09-13T06:48:50.698Z,7.97
2018-09-13T06:51:19.034Z,7.70
2018-09-13T06:53:47.519Z,7.80
2018-09-13T06:56:15.909Z,8.87
2018-09-13T06:58:44.189Z,8.53
2018-09-13T07:01:22.830Z,9.47
2018-09-13T07:03:51.912Z,9.00
2018-09-13T07:06:20.972Z,9.07
2018-09-13T07:08:49.529Z,8.27
2018-09-13T07:11:17.836Z,8.73
2018-09-13T07:13:46.392Z,8.40
2018-09-13T07:30:44.334Z,6.93
2018-09-13T07:36:21.590Z,7.57
2018-09-13T07:38:57.086Z,7.50
2018-09-13T08:08:11.273Z,6.50
2018-09-13T08:10:39.497Z,6.27
2018-09-13T08:13:07.648Z,7.20
2018-09-13T08:15:35.971Z,6.97
2018-09-13T08:18:04.216Z,6.90
2018-09-13T08:20:32.431Z,7.50
2018-09-13T08:23:00.634Z,7.17
2018-09-13T08:25:28.775Z,6.23
2018-09-13T08:27:57.005Z,6.87
2018-09-13T08:45:32.808Z,6.47
2018-09-13T09:02:42.337Z,6.00
2018-09-13T09:05:10.941Z,5.53
2018-09-13T09:07:39.801Z,6.10
2018-09-13T09:10:08.210Z,6.67
2018-09-13T09:12:40.096Z,5.80
2018-09-13T09:15:09.943Z,5.37
2018-09-13T09:17:38.502Z,7.30
2018-09-13T09:20:07.067Z,5.53
2018-09-13T09:22:37.428Z,5.63
2018-09-13T09:25:06.045Z,5.57
2018-09-13T09:27:37.095Z,6.10
2018-09-13T09:30:05.750Z,5.53
2018-09-13T09:32:34.210Z,5.43
2018-09-13T09:35:08.920Z,5.80
2018-09-13T09:37:42.280Z,5.43
2018-09-13T09:43:11.806Z,5.63
2018-09-13T09:45:45.880Z,4.73
2018-09-13T09:48:19.299Z,5.50
2018-09-13T09:50:48.110Z,5.83
2018-09-13T09:53:16.931Z,5.40
2018-09-13T09:55:52.552Z,4.53
2018-09-13T09:58:21.449Z,5.90
2018-09-13T10:00:55.107Z,4.77
2018-09-13T10:03:26.025Z,5.13
2018-09-13T10:05:54.428Z,4.47
2018-09-13T10:08:22.638Z,4.83
2018-09-13T10:10:51.330Z,5.50
2018-09-13T10:13:19.797Z,5.17
2018-09-13T10:15:53.476Z,5.00
2018-09-13T10:18:27.252Z,4.80
2018-09-13T10:21:00.825Z,5.43
2018-09-13T10:23:40.994Z,5.10
2018-09-13T10:29:12.776Z,4.67
2018-09-13T10:31:46.148Z,4.40
2018-09-13T10:34:19.828Z,5.57
2018-09-13T10:36:53.725Z,4.90
2018-09-13T10:39:27.365Z,5.30
2018-09-13T10:42:01.597Z,4.37
2018-09-13T10:44:36.165Z,4.10
2018-09-13T10:47:09.786Z,4.50
2018-09-13T10:49:43.488Z,4.43
2018-09-13T10:52:49.386Z,4.60
2018-09-13T10:55:17.820Z,4.40
2018-09-13T10:57:46.710Z,4.43
2018-09-13T11:00:15.239Z,4.30
2018-09-13T11:02:43.401Z,4.83
2018-09-13T11:05:11.693Z,4.20
2018-09-13T11:07:40.131Z,4.93
2018-09-13T11:10:08.220Z,4.20
2018-09-13T11:12:43.688Z,4.40
2018-09-13T11:15:19.582Z,4.23
2018-09-13T11:17:47.820Z,4.70
2018-09-13T11:20:16.071Z,4.63
2018-09-13T11:22:44.274Z,4.03
2018-09-13T11:25:12.813Z,4.47
2018-09-13T11:27:41.168Z,3.47
2018-09-13T11:30:09.388Z,4.37
2018-09-13T11:32:41.613Z,5.23
2018-09-13T11:35:10.056Z,3.80
2018-09-13T11:37:38.382Z,5.03
2018-09-13T11:40:06.767Z,3.83
2018-09-13T11:42:35.228Z,4.30
2018-09-13T11:51:02.471Z,4.20
2018-09-13T11:53:38.691Z,3.93
2018-09-13T12:04:55.301Z,4.50
2018-09-13T12:10:19.881Z,4.20
2018-09-13T12:12:48.883Z,4.10
2018-09-13T12:15:17.058Z,4.40
2018-09-13T12:17:45.496Z,4.27
2018-09-13T12:20:13.708Z,4.30
2018-09-13T12:22:41.929Z,3.90
2018-09-13T12:25:10.130Z,4.63
2018-09-13T12:27:38.337Z,4.33
2018-09-13T12:30:08.681Z,4.70
2018-09-13T12:32:36.907Z,4.07
2018-09-13T12:35:05.488Z,3.90
2018-09-13T12:37:33.744Z,4.73
2018-09-13T12:40:01.937Z,3.50
2018-09-13T12:42:30.197Z,3.77
2018-09-13T12:44:58.373Z,4.20
2018-09-13T12:47:26.577Z,3.90
2018-09-13T12:49:54.866Z,4.07
2018-09-13T12:52:23.093Z,3.90
2018-09-13T12:54:51.396Z,3.77
2018-09-13T12:57:19.597Z,3.90
2018-09-13T12:59:47.826Z,3.90
2018-09-13T13:02:16.049Z,3.93
2018-09-13T13:04:44.248Z,4.50
2018-09-13T13:07:12.445Z,3.80
2018-09-13T13:09:40.724Z,3.60
2018-09-13T13:12:08.944Z,4.40
2018-09-13T13:14:37.332Z,3.50
2018-09-13T13:17:07.903Z,3.80
2018-09-13T13:19:36.132Z,3.97
2018-09-13T13:22:04.442Z,4.33
2018-09-13T13:24:32.604Z,4.00
2018-09-13T13:27:00.833Z,4.40
2018-09-13T13:29:29.100Z,4.30
2018-09-13T13:31:57.605Z,4.97
2018-09-13T13:34:25.848Z,4.40
2018-09-13T13:36:54.064Z,4.13
2018-09-13T13:39:22.751Z,4.20
2018-09-13T13:41:50.973Z,4.80
2018-09-13T13:44:19.239Z,4.40
2018-09-13T13:46:47.440Z,4.90
2018-09-13T13:49:15.687Z,4.27
2018-09-13T13:51:43.885Z,4.67
2018-09-13T13:54:12.118Z,5.30
2018-09-13T13:56:40.396Z,4.50
2018-09-13T13:59:08.638Z,4.73
2018-09-13T14:01:36.889Z,4.37
2018-09-13T14:04:05.164Z,4.77
2018-09-13T14:06:33.444Z,4.27
2018-09-13T14:09:01.665Z,4.43
2018-09-13T14:11:29.872Z,4.30
2018-09-13T14:13:58.084Z,3.53
2018-09-13T14:16:26.354Z,4.20
2018-09-13T14:18:54.571Z,3.77
2018-09-13T14:21:22.811Z,4.60
2018-09-13T14:23:51.092Z,4.60
2018-09-13T14:26:19.341Z,3.40
2018-09-13T14:28:47.769Z,3.70
2018-09-13T14:31:17.480Z,4.10
2018-09-13T14:33:45.680Z,4.00
2018-09-13T14:36:13.876Z,3.87
2018-09-13T14:38:42.103Z,5.00
2018-09-13T14:41:10.354Z,4.63
2018-09-13T14:43:38.585Z,4.40
2018-09-13T14:46:06.831Z,4.40
2018-09-13T14:48:35.093Z,4.63
2018-09-13T14:51:03.296Z,4.80
2018-09-13T14:53:31.460Z,4.70
2018-09-13T14:55:59.831Z,4.67
2018-09-13T14:58:28.075Z,5.30
2018-09-13T15:00:56.241Z,5.77
2018-09-13T15:03:24.380Z,5.40
2018-09-13T15:05:52.575Z,4.87
2018-09-13T15:08:20.766Z,5.90
2018-09-13T15:10:48.944Z,5.93
2018-09-13T15:13:17.113Z,6.07
2018-09-13T15:15:45.276Z,6.47
2018-09-13T15:18:13.497Z,6.07
2018-09-13T15:20:41.671Z,6.53
2018-09-13T15:23:09.865Z,6.63
2018-09-13T15:25:38.008Z,6.47
2018-09-13T15:28:06.201Z,7.23
2018-09-13T15:30:34.662Z,6.57
2018-09-13T15:33:02.900Z,7.40
2018-09-13T15:35:31.071Z,7.03
2018-09-13T15:37:59.225Z,7.23
2018-09-13T15:40:27.381Z,7.80
2018-09-13T15:42:55.573Z,7.00
2018-09-13T15:45:23.758Z,7.50
2018-09-13T15:47:51.956Z,7.00
2018-09-13T15:50:20.144Z,5.60
2018-09-13T15:52:48.359Z,6.03
2018-09-13T15:55:16.506Z,6.10
2018-09-13T15:57:44.649Z,5.80
2018-09-13T16:00:12.805Z,6.60
2018-09-13T16:02:40.962Z,6.07
2018-09-13T16:05:09.232Z,6.60
2018-09-13T16:07:37.395Z,5.90
2018-09-13T16:10:05.684Z,6.83
2018-09-13T16:12:33.836Z,7.27
2018-09-13T16:15:02.039Z,6.30
2018-09-13T16:17:30.207Z,6.23
2018-09-13T16:19:58.364Z,6.80
2018-09-13T16:22:26.532Z,6.30
2018-09-13T16:24:54.739Z,6.23
2018-09-13T16:27:22.927Z,6.47
2018-09-13T16:29:51.112Z,6.77
2018-09-13T16:32:23.142Z,6.47
2018-09-13T16:34:52.003Z,7.00
2018-09-13T16:37:25.516Z,6.13
2018-09-13T16:39:59.507Z,6.70
2018-09-13T16:42:38.739Z,7.47
2018-09-13T16:45:06.990Z,6.00
2018-09-13T16:47:40.692Z,6.00
2018-09-13T16:50:08.849Z,6.53
2018-09-13T16:52:37.031Z,6.37
2018-09-13T16:55:05.236Z,6.40
2018-09-13T16:57:33.406Z,5.93
2018-09-13T17:00:01.591Z,6.30
2018-09-13T17:02:29.807Z,5.80
2018-09-13T17:04:58.007Z,6.27
2018-09-13T17:07:26.201Z,5.73
2018-09-13T17:09:54.350Z,5.37
2018-09-13T17:12:22.490Z,6.40
2018-09-13T17:14:50.707Z,5.60
2018-09-13T17:17:18.901Z,6.37
2018-09-13T17:19:47.067Z,6.30
2018-09-13T17:22:15.211Z,5.93
2018-09-13T17:24:43.367Z,6.20
2018-09-13T17:27:11.556Z,6.80
2018-09-13T17:29:39.717Z,6.47
2018-09-13T17:32:07.870Z,7.73
2018-09-13T17:34:36.044Z,6.77
2018-09-13T17:37:04.235Z,6.10
2018-09-13T17:39:32.400Z,6.40
2018-09-13T17:42:00.560Z,6.50
2018-09-13T17:44:28.740Z,6.67
2018-09-13T17:46:56.913Z,6.53
2018-09-13T17:49:25.086Z,6.37
2018-09-13T17:51:53.263Z,6.40
2018-09-13T17:54:21.432Z,7.07
2018-09-13T17:56:49.781Z,6.77
2018-09-13T17:59:18.020Z,7.80
2018-09-13T18:01:46.204Z,7.50
2018-09-13T18:04:14.821Z,7.77
2018-09-13T18:06:43.002Z,8.10
2018-09-13T18:09:11.597Z,9.23
2018-09-13T18:11:39.896Z,8.77
2018-09-13T18:14:08.167Z,9.20
2018-09-13T18:16:36.462Z,11.33
2018-09-13T18:19:04.646Z,9.20
2018-09-13T18:21:32.811Z,9.20
2018-09-13T18:24:00.991Z,9.93
2018-09-13T18:26:29.205Z,9.00
2018-09-13T18:28:57.503Z,9.63
2018-09-13T18:31:26.464Z,8.50
2018-09-13T18:33:54.732Z,9.70
2018-09-13T18:36:24.087Z,10.40
2018-09-13T18:38:52.873Z,9.53
2018-09-13T18:41:21.759Z,7.87
2018-09-13T18:43:49.985Z,9.50
2018-09-13T18:46:18.278Z,9.00
2018-09-13T18:48:46.678Z,9.07
2018-09-13T18:51:14.920Z,9.23
2018-09-13T18:53:43.175Z,10.40
2018-09-13T18:56:11.402Z,10.00
2018-09-13T18:58:39.668Z,10.00
2018-09-13T19:01:07.900Z,10.20
2018-09-13T19:03:36.098Z,9.37
2018-09-13T19:06:04.315Z,8.90
2018-09-13T19:08:32.544Z,8.77
2018-09-13T19:11:00.799Z,8.73
2018-09-13T19:13:29.016Z,9.33
2018-09-13T19:15:57.281Z,9.20
2018-09-13T19:18:25.433Z,8.83
2018-09-13T19:20:53.678Z,9.40
2018-09-13T19:23:40.136Z,8.57
2018-09-13T19:26:08.498Z,8.27
2018-09-13T19:28:36.656Z,7.70
2018-09-13T19:31:05.197Z,8.50
2018-09-13T19:33:33.377Z,8.53
2018-09-13T19:36:18.929Z,7.63
2018-09-13T19:38:47.150Z,7.80
2018-09-13T19:44:07.464Z,8.93
2018-09-13T19:46:52.707Z,7.00
2018-09-13T19:49:20.845Z,7.53
2018-09-13T19:51:49.007Z,7.40
2018-09-13T19:54:17.176Z,7.93
2018-09-13T19:56:45.487Z,7.40
2018-09-13T19:59:14.657Z,7.83
2018-09-13T20:01:42.879Z,7.30
2018-09-13T20:04:11.384Z,7.57
2018-09-13T20:06:39.601Z,7.20
2018-09-13T20:09:08.744Z,7.40
2018-09-13T20:11:39.122Z,7.07
2018-09-13T20:14:07.287Z,8.00
2018-09-13T20:16:42.718Z,7.20
2018-09-13T20:19:10.922Z,7.57
2018-09-13T20:21:39.305Z,8.47
2018-09-13T20:24:07.485Z,7.13
2018-09-13T20:26:35.689Z,7.70
2018-09-13T20:29:03.935Z,7.03
2018-09-13T20:31:32.125Z,7.67
2018-09-13T20:34:00.296Z,7.37
2018-09-13T20:36:28.517Z,8.20
2018-09-13T20:38:56.806Z,7.03
2018-09-13T20:41:24.995Z,6.80
2018-09-13T20:43:53.231Z,7.87
2018-09-13T20:46:21.468Z,6.87
2018-09-13T20:48:49.636Z,6.80
2018-09-13T20:51:17.896Z,7.13
2018-09-13T20:53:46.044Z,6.83
2018-09-13T20:56:14.254Z,7.90
2018-09-13T20:58:42.416Z,7.90
2018-09-13T21:01:10.626Z,7.90
2018-09-13T21:03:38.874Z,7.33
2018-09-13T21:06:07.051Z,8.40
2018-09-13T21:08:35.240Z,7.67
2018-09-13T21:11:03.417Z,7.70
2018-09-13T21:13:31.575Z,8.00
2018-09-13T21:15:59.748Z,8.03
2018-09-13T21:18:27.935Z,8.30
2018-09-13T21:20:56.198Z,7.73
2018-09-13T21:23:24.411Z,7.80
2018-09-13T21:25:52.944Z,7.10
2018-09-13T21:28:21.176Z,7.60
2018-09-13T21:30:49.344Z,7.47
2018-09-13T21:33:17.515Z,7.50
2018-09-13T21:35:45.667Z,6.27
2018-09-13T21:38:13.897Z,6.60
2018-09-13T21:40:42.071Z,6.37
2018-09-13T21:43:10.258Z,6.00
2018-09-13T21:45:38.395Z,5.80
2018-09-13T21:48:06.583Z,6.17
2018-09-13T21:50:34.799Z,5.33
2018-09-13T21:53:03.799Z,6.40
2018-09-13T21:55:31.973Z,6.50
2018-09-13T21:58:00.154Z,6.00
2018-09-13T22:00:28.315Z,6.10
